CheckWX is a tool to help pilots better visualize weather data.  It is not intended as a substitute for an official pre-flight weather briefing.

00:06:15 UTC

KMCJ METAR
Houston
Houston, Texas, USA
Current

11 mins ago

KMCJ 052355Z AUTO 00000KT 10SM CLR 20/15 A2999 RMK A01
Observed
Dec-5 @ 23:55 UTC
Visibility
10 SM
Flight Rules
VFR
Cloud Levels
  • Clear skies
Temperature
20°C / 68°F
Dewpoint
15°C / 59°F
Humidity
73%
Altimeter
29.99" Hg
Pressure
1015.62 hPa
Previous

31 mins ago

KMCJ 052335Z AUTO VRB03KT 10SM CLR 21/15 A2998 RMK A01
Observed
Dec-5 @ 23:35 UTC
Wind
  • Variable at 3 KTS
Visibility
10 SM
Flight Rules
VFR
Cloud Levels
  • Clear skies
Temperature
21°C / 70°F
Dewpoint
15°C / 59°F
Humidity
69%
Altimeter
29.98" Hg
Pressure
1015.22 hPa
Previous

51 mins ago

KMCJ 052315Z AUTO VRB03KT 10SM CLR 21/15 A2998 RMK A01
Observed
Dec-5 @ 23:15 UTC
Wind
  • Variable at 3 KTS
Visibility
10 SM
Flight Rules
VFR
Cloud Levels
  • Clear skies
Temperature
21°C / 70°F
Dewpoint
15°C / 59°F
Humidity
69%
Altimeter
29.98" Hg
Pressure
1015.22 hPa